sensor_id;sensor_type;location;lat;lon;timestamp;temperature;humidity
12408;DHT22;6268;48.188;17.134;2023-09-19T00:01:06;22.30;99.90
12408;DHT22;6268;48.188;17.134;2023-09-19T00:03:35;22.30;99.90
12408;DHT22;6268;48.188;17.134;2023-09-19T00:06:05;22.30;99.90
12408;DHT22;6268;48.188;17.134;2023-09-19T00:08:35;22.30;99.90
12408;DHT22;6268;48.188;17.134;2023-09-19T00:11:03;22.20;99.90
12408;DHT22;6268;48.188;17.134;2023-09-19T00:13:35;22.20;99.90
12408;DHT22;6268;48.188;17.134;2023-09-19T00:16:10;22.20;99.90
12408;DHT22;6268;48.188;17.134;2023-09-19T00:18:39;22.20;99.90
12408;DHT22;6268;48.188;17.134;2023-09-19T00:21:08;22.20;99.90
12408;DHT22;6268;48.188;17.134;2023-09-19T00:23:37;22.10;99.90
12408;DHT22;6268;48.188;17.134;2023-09-19T00:26:08;22.10;99.90
12408;DHT22;6268;48.188;17.134;2023-09-19T00:28:36;22.10;99.90
12408;DHT22;6268;48.188;17.134;2023-09-19T00:31:09;22.10;99.90
12408;DHT22;6268;48.188;17.134;2023-09-19T00:33:38;22.10;99.90
12408;DHT22;6268;48.188;17.134;2023-09-19T00:36:07;22.00;99.90
12408;DHT22;6268;48.188;17.134;2023-09-19T00:38:35;21.90;99.90
12408;DHT22;6268;48.188;17.134;2023-09-19T00:41:03;21.80;99.90
12408;DHT22;6268;48.188;17.134;2023-09-19T00:43:32;21.70;99.90
12408;DHT22;6268;48.188;17.134;2023-09-19T00:46:02;21.70;99.90
12408;DHT22;6268;48.188;17.134;2023-09-19T00:48:40;21.50;99.90
12408;DHT22;6268;48.188;17.134;2023-09-19T00:51:11;21.40;99.90
12408;DHT22;6268;48.188;17.134;2023-09-19T00:53:41;21.30;99.90
12408;DHT22;6268;48.188;17.134;2023-09-19T00:56:13;21.30;99.90
12408;DHT22;6268;48.188;17.134;2023-09-19T00:58:46;21.30;99.90
12408;DHT22;6268;48.188;17.134;2023-09-19T01:01:14;21.30;99.90
12408;DHT22;6268;48.188;17.134;2023-09-19T01:03:45;21.20;99.90
12408;DHT22;6268;48.188;17.134;2023-09-19T01:06:13;21.10;99.90
12408;DHT22;6268;48.188;17.134;2023-09-19T01:08:42;21.10;99.90
12408;DHT22;6268;48.188;17.134;2023-09-19T01:11:14;21.00;99.90
12408;DHT22;6268;48.188;17.134;2023-09-19T01:13:52;21.00;99.90
12408;DHT22;6268;48.188;17.134;2023-09-19T01:16:31;20.90;99.90
12408;DHT22;6268;48.188;17.134;2023-09-19T01:19:12;20.90;99.90
12408;DHT22;6268;48.188;17.134;2023-09-19T01:21:54;20.90;99.90
12408;DHT22;6268;48.188;17.134;2023-09-19T01:24:51;20.80;99.90
12408;DHT22;6268;48.188;17.134;2023-09-19T01:27:44;20.80;99.90
12408;DHT22;6268;48.188;17.134;2023-09-19T01:30:19;20.80;99.90
12408;DHT22;6268;48.188;17.134;2023-09-19T01:32:50;20.70;99.90
12408;DHT22;6268;48.188;17.134;2023-09-19T01:35:19;20.70;99.90
12408;DHT22;6268;48.188;17.134;2023-09-19T01:37:48;20.60;99.90
12408;DHT22;6268;48.188;17.134;2023-09-19T01:40:17;20.60;99.90
12408;DHT22;6268;48.188;17.134;2023-09-19T01:42:52;20.60;99.90
12408;DHT22;6268;48.188;17.134;2023-09-19T01:45:33;20.60;99.90
12408;DHT22;6268;48.188;17.134;2023-09-19T01:48:12;20.40;99.90
12408;DHT22;6268;48.188;17.134;2023-09-19T01:50:55;20.40;99.90
12408;DHT22;6268;48.188;17.134;2023-09-19T01:53:27;20.30;99.90
12408;DHT22;6268;48.188;17.134;2023-09-19T01:55:58;20.30;99.90
12408;DHT22;6268;48.188;17.134;2023-09-19T01:58:34;20.30;99.90
12408;DHT22;6268;48.188;17.134;2023-09-19T02:01:06;20.20;99.90
12408;DHT22;6268;48.188;17.134;2023-09-19T02:03:35;20.00;99.90
12408;DHT22;6268;48.188;17.134;2023-09-19T02:06:05;19.90;99.90
12408;DHT22;6268;48.188;17.134;2023-09-19T02:08:38;19.90;99.90
12408;DHT22;6268;48.188;17.134;2023-09-19T02:11:07;20.00;99.90
12408;DHT22;6268;48.188;17.134;2023-09-19T02:13:35;20.00;99.90
12408;DHT22;6268;48.188;17.134;2023-09-19T02:16:06;19.90;99.90
12408;DHT22;6268;48.188;17.134;2023-09-19T02:18:36;19.90;99.90
12408;DHT22;6268;48.188;17.134;2023-09-19T02:21:06;19.90;99.90
12408;DHT22;6268;48.188;17.134;2023-09-19T02:23:37;19.90;99.90
12408;DHT22;6268;48.188;17.134;2023-09-19T02:26:06;19.80;99.90
12408;DHT22;6268;48.188;17.134;2023-09-19T02:28:35;19.80;99.90
12408;DHT22;6268;48.188;17.134;2023-09-19T02:31:03;19.80;99.90
12408;DHT22;6268;48.188;17.134;2023-09-19T02:33:34;19.70;99.90
12408;DHT22;6268;48.188;17.134;2023-09-19T02:36:05;19.70;99.90
12408;DHT22;6268;48.188;17.134;2023-09-19T02:38:34;19.70;99.90
12408;DHT22;6268;48.188;17.134;2023-09-19T02:41:04;19.70;99.90
12408;DHT22;6268;48.188;17.134;2023-09-19T02:43:33;19.70;99.90
12408;DHT22;6268;48.188;17.134;2023-09-19T02:46:01;19.60;99.90
12408;DHT22;6268;48.188;17.134;2023-09-19T02:48:30;19.70;99.90
12408;DHT22;6268;48.188;17.134;2023-09-19T02:51:00;19.60;99.90
12408;DHT22;6268;48.188;17.134;2023-09-19T02:53:32;19.60;99.90
12408;DHT22;6268;48.188;17.134;2023-09-19T02:56:00;19.60;99.90
12408;DHT22;6268;48.188;17.134;2023-09-19T02:58:30;19.50;99.90
12408;DHT22;6268;48.188;17.134;2023-09-19T03:01:08;19.50;99.90
12408;DHT22;6268;48.188;17.134;2023-09-19T03:03:39;19.40;99.90
12408;DHT22;6268;48.188;17.134;2023-09-19T03:06:09;19.30;99.90
12408;DHT22;6268;48.188;17.134;2023-09-19T03:08:38;19.30;99.90
12408;DHT22;6268;48.188;17.134;2023-09-19T03:11:06;19.30;99.90
12408;DHT22;6268;48.188;17.134;2023-09-19T03:13:38;19.20;99.90
12408;DHT22;6268;48.188;17.134;2023-09-19T03:16:07;19.20;99.90
12408;DHT22;6268;48.188;17.134;2023-09-19T03:18:36;19.10;99.90
12408;DHT22;6268;48.188;17.134;2023-09-19T03:21:04;19.00;99.90
12408;DHT22;6268;48.188;17.134;2023-09-19T03:23:34;19.00;99.90
12408;DHT22;6268;48.188;17.134;2023-09-19T03:26:03;18.90;99.90
12408;DHT22;6268;48.188;17.134;2023-09-19T03:28:33;19.00;99.90
12408;DHT22;6268;48.188;17.134;2023-09-19T03:31:03;18.80;99.90
12408;DHT22;6268;48.188;17.134;2023-09-19T03:33:32;18.80;99.90
12408;DHT22;6268;48.188;17.134;2023-09-19T03:36:02;18.80;99.90
12408;DHT22;6268;48.188;17.134;2023-09-19T03:38:34;18.90;99.90
12408;DHT22;6268;48.188;17.134;2023-09-19T03:41:03;18.80;99.90
12408;DHT22;6268;48.188;17.134;2023-09-19T03:43:32;18.80;99.90
12408;DHT22;6268;48.188;17.134;2023-09-19T03:46:02;18.80;99.90
12408;DHT22;6268;48.188;17.134;2023-09-19T03:48:31;18.70;99.90
12408;DHT22;6268;48.188;17.134;2023-09-19T03:51:00;18.70;99.90
12408;DHT22;6268;48.188;17.134;2023-09-19T03:53:29;18.60;99.90
12408;DHT22;6268;48.188;17.134;2023-09-19T03:55:59;18.60;99.90
12408;DHT22;6268;48.188;17.134;2023-09-19T03:58:28;18.70;99.90
12408;DHT22;6268;48.188;17.134;2023-09-19T04:00:57;18.70;99.90
12408;DHT22;6268;48.188;17.134;2023-09-19T04:03:26;18.70;99.90
12408;DHT22;6268;48.188;17.134;2023-09-19T04:06:02;18.80;99.90
12408;DHT22;6268;48.188;17.134;2023-09-19T04:08:31;18.80;99.90
12408;DHT22;6268;48.188;17.134;2023-09-19T04:11:01;18.80;99.90
12408;DHT22;6268;48.188;17.134;2023-09-19T04:13:29;18.70;99.90
12408;DHT22;6268;48.188;17.134;2023-09-19T04:15:58;18.70;99.90
12408;DHT22;6268;48.188;17.134;2023-09-19T04:18:26;18.80;99.90
12408;DHT22;6268;48.188;17.134;2023-09-19T04:20:58;18.70;99.90
12408;DHT22;6268;48.188;17.134;2023-09-19T04:23:26;18.80;99.90
12408;DHT22;6268;48.188;17.134;2023-09-19T04:25:55;18.80;99.90
12408;DHT22;6268;48.188;17.134;2023-09-19T04:28:25;18.80;99.90
12408;DHT22;6268;48.188;17.134;2023-09-19T04:30:55;18.80;99.90
12408;DHT22;6268;48.188;17.134;2023-09-19T04:33:26;18.90;99.90
12408;DHT22;6268;48.188;17.134;2023-09-19T04:35:56;18.80;99.90
12408;DHT22;6268;48.188;17.134;2023-09-19T04:38:37;18.90;99.90
12408;DHT22;6268;48.188;17.134;2023-09-19T04:41:06;19.00;99.90
12408;DHT22;6268;48.188;17.134;2023-09-19T04:43:36;19.00;99.90
12408;DHT22;6268;48.188;17.134;2023-09-19T04:46:05;19.00;99.90
12408;DHT22;6268;48.188;17.134;2023-09-19T04:48:34;19.10;99.90
12408;DHT22;6268;48.188;17.134;2023-09-19T04:51:02;19.10;99.90
12408;DHT22;6268;48.188;17.134;2023-09-19T04:53:31;19.10;99.90
12408;DHT22;6268;48.188;17.134;2023-09-19T04:56:00;19.10;99.90
12408;DHT22;6268;48.188;17.134;2023-09-19T04:58:31;19.20;99.90
12408;DHT22;6268;48.188;17.134;2023-09-19T05:01:01;19.10;99.90
12408;DHT22;6268;48.188;17.134;2023-09-19T05:03:31;19.10;99.90
12408;DHT22;6268;48.188;17.134;2023-09-19T05:06:00;19.20;99.90
12408;DHT22;6268;48.188;17.134;2023-09-19T05:08:28;19.10;99.90
12408;DHT22;6268;48.188;17.134;2023-09-19T05:10:57;19.10;99.90
12408;DHT22;6268;48.188;17.134;2023-09-19T05:13:26;19.00;99.90
12408;DHT22;6268;48.188;17.134;2023-09-19T05:15:54;19.10;99.90
12408;DHT22;6268;48.188;17.134;2023-09-19T05:18:24;19.10;99.90
12408;DHT22;6268;48.188;17.134;2023-09-19T05:20:53;19.10;99.90
12408;DHT22;6268;48.188;17.134;2023-09-19T05:23:22;19.10;99.90
12408;DHT22;6268;48.188;17.134;2023-09-19T05:25:51;19.10;99.90
12408;DHT22;6268;48.188;17.134;2023-09-19T05:28:19;19.10;99.90
12408;DHT22;6268;48.188;17.134;2023-09-19T05:30:48;19.20;99.90
12408;DHT22;6268;48.188;17.134;2023-09-19T05:33:17;19.20;99.90
12408;DHT22;6268;48.188;17.134;2023-09-19T05:35:49;19.30;99.90
12408;DHT22;6268;48.188;17.134;2023-09-19T05:38:18;19.30;99.90
12408;DHT22;6268;48.188;17.134;2023-09-19T05:40:47;19.30;99.90
12408;DHT22;6268;48.188;17.134;2023-09-19T05:43:16;19.30;99.90
12408;DHT22;6268;48.188;17.134;2023-09-19T05:45:46;19.30;99.90
12408;DHT22;6268;48.188;17.134;2023-09-19T05:48:15;19.20;99.90
12408;DHT22;6268;48.188;17.134;2023-09-19T05:50:44;19.20;99.90
12408;DHT22;6268;48.188;17.134;2023-09-19T05:53:17;19.20;99.90
12408;DHT22;6268;48.188;17.134;2023-09-19T05:55:46;19.20;99.90
12408;DHT22;6268;48.188;17.134;2023-09-19T05:58:15;19.20;99.90
12408;DHT22;6268;48.188;17.134;2023-09-19T06:00:45;19.20;99.90
12408;DHT22;6268;48.188;17.134;2023-09-19T06:03:15;19.10;99.90
12408;DHT22;6268;48.188;17.134;2023-09-19T06:05:45;19.10;99.90
12408;DHT22;6268;48.188;17.134;2023-09-19T06:08:21;19.10;99.90
12408;DHT22;6268;48.188;17.134;2023-09-19T06:10:51;19.20;99.90
12408;DHT22;6268;48.188;17.134;2023-09-19T06:13:19;19.20;99.90
12408;DHT22;6268;48.188;17.134;2023-09-19T06:15:48;19.20;99.90
12408;DHT22;6268;48.188;17.134;2023-09-19T06:18:17;19.30;99.90
12408;DHT22;6268;48.188;17.134;2023-09-19T06:20:47;19.30;99.90
12408;DHT22;6268;48.188;17.134;2023-09-19T06:23:18;19.30;99.90
12408;DHT22;6268;48.188;17.134;2023-09-19T06:25:51;19.20;99.90
12408;DHT22;6268;48.188;17.134;2023-09-19T06:28:20;19.20;99.90
12408;DHT22;6268;48.188;17.134;2023-09-19T06:30:51;19.30;99.90
12408;DHT22;6268;48.188;17.134;2023-09-19T06:33:21;19.30;99.90
12408;DHT22;6268;48.188;17.134;2023-09-19T06:35:49;19.30;99.90
12408;DHT22;6268;48.188;17.134;2023-09-19T06:38:26;19.30;99.90
12408;DHT22;6268;48.188;17.134;2023-09-19T06:40:56;19.40;99.90
12408;DHT22;6268;48.188;17.134;2023-09-19T06:43:25;19.50;99.90
12408;DHT22;6268;48.188;17.134;2023-09-19T06:45:54;19.50;99.90
12408;DHT22;6268;48.188;17.134;2023-09-19T06:48:23;19.50;99.90
12408;DHT22;6268;48.188;17.134;2023-09-19T06:50:53;19.60;99.90
12408;DHT22;6268;48.188;17.134;2023-09-19T06:53:23;19.60;99.90
12408;DHT22;6268;48.188;17.134;2023-09-19T06:55:51;19.60;99.90
12408;DHT22;6268;48.188;17.134;2023-09-19T06:58:21;19.50;99.90
12408;DHT22;6268;48.188;17.134;2023-09-19T07:00:50;19.60;99.90
12408;DHT22;6268;48.188;17.134;2023-09-19T07:03:18;19.50;99.90
12408;DHT22;6268;48.188;17.134;2023-09-19T07:05:48;19.60;99.90
12408;DHT22;6268;48.188;17.134;2023-09-19T07:08:17;19.70;99.90
12408;DHT22;6268;48.188;17.134;2023-09-19T07:10:47;19.70;99.90
12408;DHT22;6268;48.188;17.134;2023-09-19T07:13:17;19.70;99.90
12408;DHT22;6268;48.188;17.134;2023-09-19T07:15:47;19.60;99.90
12408;DHT22;6268;48.188;17.134;2023-09-19T07:18:17;19.70;99.90
12408;DHT22;6268;48.188;17.134;2023-09-19T07:20:47;19.70;99.90
12408;DHT22;6268;48.188;17.134;2023-09-19T07:23:18;19.70;99.90
12408;DHT22;6268;48.188;17.134;2023-09-19T07:25:49;19.70;99.90
12408;DHT22;6268;48.188;17.134;2023-09-19T07:28:18;19.70;99.90
12408;DHT22;6268;48.188;17.134;2023-09-19T07:30:48;19.60;99.90
12408;DHT22;6268;48.188;17.134;2023-09-19T07:33:17;19.70;99.90
12408;DHT22;6268;48.188;17.134;2023-09-19T07:35:46;19.80;99.90
12408;DHT22;6268;48.188;17.134;2023-09-19T07:38:15;19.90;99.90
12408;DHT22;6268;48.188;17.134;2023-09-19T07:40:45;20.00;99.90
12408;DHT22;6268;48.188;17.134;2023-09-19T07:43:14;20.10;99.90
12408;DHT22;6268;48.188;17.134;2023-09-19T07:45:42;20.20;99.90
12408;DHT22;6268;48.188;17.134;2023-09-19T07:48:12;20.30;99.90
12408;DHT22;6268;48.188;17.134;2023-09-19T07:50:42;20.40;99.90
12408;DHT22;6268;48.188;17.134;2023-09-19T07:53:12;20.40;99.90
12408;DHT22;6268;48.188;17.134;2023-09-19T07:55:41;20.50;99.90
12408;DHT22;6268;48.188;17.134;2023-09-19T07:58:10;20.50;99.90
12408;DHT22;6268;48.188;17.134;2023-09-19T08:00:38;20.60;99.90
12408;DHT22;6268;48.188;17.134;2023-09-19T08:03:07;20.80;99.90
12408;DHT22;6268;48.188;17.134;2023-09-19T08:05:45;20.70;99.90
12408;DHT22;6268;48.188;17.134;2023-09-19T08:08:15;20.90;99.90
12408;DHT22;6268;48.188;17.134;2023-09-19T08:10:44;21.00;99.90
12408;DHT22;6268;48.188;17.134;2023-09-19T08:13:16;21.20;99.90
12408;DHT22;6268;48.188;17.134;2023-09-19T08:15:45;21.30;99.90
12408;DHT22;6268;48.188;17.134;2023-09-19T08:18:15;21.40;99.90
12408;DHT22;6268;48.188;17.134;2023-09-19T08:20:51;21.50;99.90
12408;DHT22;6268;48.188;17.134;2023-09-19T08:23:19;21.50;99.90
12408;DHT22;6268;48.188;17.134;2023-09-19T08:25:48;21.40;99.90
12408;DHT22;6268;48.188;17.134;2023-09-19T08:28:17;21.30;99.90
12408;DHT22;6268;48.188;17.134;2023-09-19T08:30:51;21.20;99.90
12408;DHT22;6268;48.188;17.134;2023-09-19T08:33:22;21.30;99.90
12408;DHT22;6268;48.188;17.134;2023-09-19T08:35:52;21.20;99.90
12408;DHT22;6268;48.188;17.134;2023-09-19T08:38:20;21.20;99.90
12408;DHT22;6268;48.188;17.134;2023-09-19T08:40:49;21.10;99.90
12408;DHT22;6268;48.188;17.134;2023-09-19T08:43:18;21.10;99.90
12408;DHT22;6268;48.188;17.134;2023-09-19T08:45:49;21.40;99.90
12408;DHT22;6268;48.188;17.134;2023-09-19T08:48:23;21.60;99.90
12408;DHT22;6268;48.188;17.134;2023-09-19T08:50:56;21.70;99.90
12408;DHT22;6268;48.188;17.134;2023-09-19T08:53:29;21.60;99.90
12408;DHT22;6268;48.188;17.134;2023-09-19T08:56:00;21.60;99.90
12408;DHT22;6268;48.188;17.134;2023-09-19T08:58:33;21.50;99.90
12408;DHT22;6268;48.188;17.134;2023-09-19T09:01:03;21.50;99.90
12408;DHT22;6268;48.188;17.134;2023-09-19T09:03:35;21.40;99.90
12408;DHT22;6268;48.188;17.134;2023-09-19T09:06:07;21.40;99.90
12408;DHT22;6268;48.188;17.134;2023-09-19T09:08:38;21.40;99.90
12408;DHT22;6268;48.188;17.134;2023-09-19T09:11:08;21.50;99.90
12408;DHT22;6268;48.188;17.134;2023-09-19T09:13:40;21.40;99.90
12408;DHT22;6268;48.188;17.134;2023-09-19T09:16:09;21.60;99.90
12408;DHT22;6268;48.188;17.134;2023-09-19T09:18:37;21.60;99.90
12408;DHT22;6268;48.188;17.134;2023-09-19T09:21:07;21.50;99.90
12408;DHT22;6268;48.188;17.134;2023-09-19T09:23:39;21.50;99.90
12408;DHT22;6268;48.188;17.134;2023-09-19T09:26:08;21.50;99.90
12408;DHT22;6268;48.188;17.134;2023-09-19T09:28:45;21.40;99.90
12408;DHT22;6268;48.188;17.134;2023-09-19T09:31:24;21.30;99.90
12408;DHT22;6268;48.188;17.134;2023-09-19T09:33:53;21.30;99.90
12408;DHT22;6268;48.188;17.134;2023-09-19T09:36:35;21.40;99.90
12408;DHT22;6268;48.188;17.134;2023-09-19T09:39:04;21.50;99.90
12408;DHT22;6268;48.188;17.134;2023-09-19T09:41:45;21.50;99.90
12408;DHT22;6268;48.188;17.134;2023-09-19T09:44:15;21.50;99.90
12408;DHT22;6268;48.188;17.134;2023-09-19T09:46:46;21.50;99.90
12408;DHT22;6268;48.188;17.134;2023-09-19T09:49:48;21.50;99.90
12408;DHT22;6268;48.188;17.134;2023-09-19T09:52:23;21.50;99.90
12408;DHT22;6268;48.188;17.134;2023-09-19T09:55:03;21.50;99.90
12408;DHT22;6268;48.188;17.134;2023-09-19T09:57:33;21.40;99.90
12408;DHT22;6268;48.188;17.134;2023-09-19T10:00:03;21.40;99.90
12408;DHT22;6268;48.188;17.134;2023-09-19T10:02:47;21.40;99.90
12408;DHT22;6268;48.188;17.134;2023-09-19T10:05:17;21.40;99.90
12408;DHT22;6268;48.188;17.134;2023-09-19T10:08:12;21.50;99.90
12408;DHT22;6268;48.188;17.134;2023-09-19T10:10:46;21.50;99.90
12408;DHT22;6268;48.188;17.134;2023-09-19T10:13:22;21.60;99.90
12408;DHT22;6268;48.188;17.134;2023-09-19T10:15:55;21.40;99.90
12408;DHT22;6268;48.188;17.134;2023-09-19T10:18:26;21.50;99.90
12408;DHT22;6268;48.188;17.134;2023-09-19T10:20:57;21.60;99.90
12408;DHT22;6268;48.188;17.134;2023-09-19T10:23:31;21.60;99.90
12408;DHT22;6268;48.188;17.134;2023-09-19T10:26:02;21.70;99.90
12408;DHT22;6268;48.188;17.134;2023-09-19T10:28:32;21.70;99.90
12408;DHT22;6268;48.188;17.134;2023-09-19T10:31:02;21.70;99.90
12408;DHT22;6268;48.188;17.134;2023-09-19T10:33:36;21.90;99.90
12408;DHT22;6268;48.188;17.134;2023-09-19T10:36:06;22.00;99.90
12408;DHT22;6268;48.188;17.134;2023-09-19T10:38:39;22.20;99.90
12408;DHT22;6268;48.188;17.134;2023-09-19T10:41:09;22.30;99.90
12408;DHT22;6268;48.188;17.134;2023-09-19T10:43:39;22.50;99.90
12408;DHT22;6268;48.188;17.134;2023-09-19T10:46:12;22.70;99.90
12408;DHT22;6268;48.188;17.134;2023-09-19T10:48:41;22.90;99.90
12408;DHT22;6268;48.188;17.134;2023-09-19T10:51:17;23.00;99.90
12408;DHT22;6268;48.188;17.134;2023-09-19T10:53:56;23.20;99.90
12408;DHT22;6268;48.188;17.134;2023-09-19T10:56:31;23.30;99.90
12408;DHT22;6268;48.188;17.134;2023-09-19T10:59:08;23.70;99.90
12408;DHT22;6268;48.188;17.134;2023-09-19T11:01:43;24.10;99.90
12408;DHT22;6268;48.188;17.134;2023-09-19T11:04:26;24.10;99.90
12408;DHT22;6268;48.188;17.134;2023-09-19T11:07:04;24.40;99.90
12408;DHT22;6268;48.188;17.134;2023-09-19T11:09:48;24.40;99.90
12408;DHT22;6268;48.188;17.134;2023-09-19T11:12:50;24.20;99.90
12408;DHT22;6268;48.188;17.134;2023-09-19T11:18:56;24.00;99.90
12408;DHT22;6268;48.188;17.134;2023-09-19T11:21:52;23.80;99.90
12408;DHT22;6268;48.188;17.134;2023-09-19T11:24:30;24.00;99.90
12408;DHT22;6268;48.188;17.134;2023-09-19T11:27:12;24.00;99.90
12408;DHT22;6268;48.188;17.134;2023-09-19T11:29:44;24.10;99.90
12408;DHT22;6268;48.188;17.134;2023-09-19T11:32:14;24.30;99.90
12408;DHT22;6268;48.188;17.134;2023-09-19T11:34:46;24.60;99.90
12408;DHT22;6268;48.188;17.134;2023-09-19T11:40:37;24.80;99.90
12408;DHT22;6268;48.188;17.134;2023-09-19T11:43:30;24.90;99.90
12408;DHT22;6268;48.188;17.134;2023-09-19T11:46:04;24.60;99.90
12408;DHT22;6268;48.188;17.134;2023-09-19T11:48:34;24.60;99.90
12408;DHT22;6268;48.188;17.134;2023-09-19T11:51:15;24.60;99.90
12408;DHT22;6268;48.188;17.134;2023-09-19T11:53:50;24.90;99.90
12408;DHT22;6268;48.188;17.134;2023-09-19T11:56:20;25.20;99.90
12408;DHT22;6268;48.188;17.134;2023-09-19T11:58:54;25.10;99.90
12408;DHT22;6268;48.188;17.134;2023-09-19T12:01:25;25.20;99.90
12408;DHT22;6268;48.188;17.134;2023-09-19T12:03:57;25.10;99.90
12408;DHT22;6268;48.188;17.134;2023-09-19T12:06:27;24.90;99.90
12408;DHT22;6268;48.188;17.134;2023-09-19T12:08:57;24.80;99.90
12408;DHT22;6268;48.188;17.134;2023-09-19T12:11:29;24.70;99.90
12408;DHT22;6268;48.188;17.134;2023-09-19T12:14:02;24.80;99.90
12408;DHT22;6268;48.188;17.134;2023-09-19T12:16:31;24.90;99.90
12408;DHT22;6268;48.188;17.134;2023-09-19T12:19:19;24.90;99.90
12408;DHT22;6268;48.188;17.134;2023-09-19T12:21:57;24.90;99.90
12408;DHT22;6268;48.188;17.134;2023-09-19T12:24:27;24.80;99.90
12408;DHT22;6268;48.188;17.134;2023-09-19T12:27:01;24.80;99.90
12408;DHT22;6268;48.188;17.134;2023-09-19T12:29:42;24.80;99.90
12408;DHT22;6268;48.188;17.134;2023-09-19T12:32:11;24.80;99.90
12408;DHT22;6268;48.188;17.134;2023-09-19T12:34:51;24.80;99.90
12408;DHT22;6268;48.188;17.134;2023-09-19T12:37:21;24.60;99.90
12408;DHT22;6268;48.188;17.134;2023-09-19T12:39:51;24.50;99.90
12408;DHT22;6268;48.188;17.134;2023-09-19T12:42:23;24.50;99.90
12408;DHT22;6268;48.188;17.134;2023-09-19T12:44:57;24.40;99.90
12408;DHT22;6268;48.188;17.134;2023-09-19T12:47:28;24.40;99.90
12408;DHT22;6268;48.188;17.134;2023-09-19T12:50:11;24.50;99.90
12408;DHT22;6268;48.188;17.134;2023-09-19T12:52:47;24.60;99.90
12408;DHT22;6268;48.188;17.134;2023-09-19T12:55:21;24.40;99.90
12408;DHT22;6268;48.188;17.134;2023-09-19T12:58:08;24.40;99.90
12408;DHT22;6268;48.188;17.134;2023-09-19T13:00:39;24.30;99.90
12408;DHT22;6268;48.188;17.134;2023-09-19T13:03:13;24.40;99.90
12408;DHT22;6268;48.188;17.134;2023-09-19T13:05:51;24.20;99.90
12408;DHT22;6268;48.188;17.134;2023-09-19T13:08:25;24.20;99.90
12408;DHT22;6268;48.188;17.134;2023-09-19T13:11:10;24.20;99.90
12408;DHT22;6268;48.188;17.134;2023-09-19T13:13:41;24.00;99.90
12408;DHT22;6268;48.188;17.134;2023-09-19T13:16:17;23.90;99.90
12408;DHT22;6268;48.188;17.134;2023-09-19T13:18:50;23.90;99.90
12408;DHT22;6268;48.188;17.134;2023-09-19T13:21:29;24.00;99.90
12408;DHT22;6268;48.188;17.134;2023-09-19T13:24:21;24.10;99.90
12408;DHT22;6268;48.188;17.134;2023-09-19T13:26:53;24.20;99.90
12408;DHT22;6268;48.188;17.134;2023-09-19T13:29:22;24.30;99.90
12408;DHT22;6268;48.188;17.134;2023-09-19T13:31:52;24.40;99.90
12408;DHT22;6268;48.188;17.134;2023-09-19T13:34:21;24.40;99.90
12408;DHT22;6268;48.188;17.134;2023-09-19T13:36:50;24.40;99.90
12408;DHT22;6268;48.188;17.134;2023-09-19T13:39:19;24.40;99.90
12408;DHT22;6268;48.188;17.134;2023-09-19T13:41:47;24.40;99.90
12408;DHT22;6268;48.188;17.134;2023-09-19T13:44:16;24.30;99.90
12408;DHT22;6268;48.188;17.134;2023-09-19T13:46:45;24.10;99.90
12408;DHT22;6268;48.188;17.134;2023-09-19T13:49:15;24.00;99.90
12408;DHT22;6268;48.188;17.134;2023-09-19T13:51:49;23.90;99.90
12408;DHT22;6268;48.188;17.134;2023-09-19T13:54:17;23.90;99.90
12408;DHT22;6268;48.188;17.134;2023-09-19T13:56:48;23.70;99.90
12408;DHT22;6268;48.188;17.134;2023-09-19T13:59:16;23.70;99.90
12408;DHT22;6268;48.188;17.134;2023-09-19T14:01:45;23.60;99.90
12408;DHT22;6268;48.188;17.134;2023-09-19T14:04:15;23.60;99.90
12408;DHT22;6268;48.188;17.134;2023-09-19T14:06:44;23.60;99.90
12408;DHT22;6268;48.188;17.134;2023-09-19T14:09:13;23.50;99.90
12408;DHT22;6268;48.188;17.134;2023-09-19T14:11:46;23.50;99.90
12408;DHT22;6268;48.188;17.134;2023-09-19T14:14:15;23.30;99.90
12408;DHT22;6268;48.188;17.134;2023-09-19T14:16:44;23.30;99.90
12408;DHT22;6268;48.188;17.134;2023-09-19T14:19:14;23.30;99.90
12408;DHT22;6268;48.188;17.134;2023-09-19T14:21:43;23.20;99.90
12408;DHT22;6268;48.188;17.134;2023-09-19T14:24:16;23.20;99.90
12408;DHT22;6268;48.188;17.134;2023-09-19T14:26:45;23.20;99.90
12408;DHT22;6268;48.188;17.134;2023-09-19T14:29:14;23.20;99.90
12408;DHT22;6268;48.188;17.134;2023-09-19T14:31:43;23.20;99.90
12408;DHT22;6268;48.188;17.134;2023-09-19T14:34:12;23.10;99.90
12408;DHT22;6268;48.188;17.134;2023-09-19T14:36:43;23.00;99.90
12408;DHT22;6268;48.188;17.134;2023-09-19T14:39:12;22.90;99.90
12408;DHT22;6268;48.188;17.134;2023-09-19T14:41:40;22.80;99.90
12408;DHT22;6268;48.188;17.134;2023-09-19T14:44:09;22.80;99.90
12408;DHT22;6268;48.188;17.134;2023-09-19T14:46:38;22.90;99.90
12408;DHT22;6268;48.188;17.134;2023-09-19T14:49:07;23.00;99.90
12408;DHT22;6268;48.188;17.134;2023-09-19T14:51:38;23.10;99.90
12408;DHT22;6268;48.188;17.134;2023-09-19T14:54:09;23.00;99.90
12408;DHT22;6268;48.188;17.134;2023-09-19T14:56:37;23.10;99.90
12408;DHT22;6268;48.188;17.134;2023-09-19T14:59:11;23.10;99.90
12408;DHT22;6268;48.188;17.134;2023-09-19T15:01:40;23.00;99.90
12408;DHT22;6268;48.188;17.134;2023-09-19T15:04:09;23.00;99.90
12408;DHT22;6268;48.188;17.134;2023-09-19T15:06:38;23.00;99.90
12408;DHT22;6268;48.188;17.134;2023-09-19T15:09:06;23.00;99.90
12408;DHT22;6268;48.188;17.134;2023-09-19T15:11:38;23.00;99.90
12408;DHT22;6268;48.188;17.134;2023-09-19T15:14:06;23.00;99.90
12408;DHT22;6268;48.188;17.134;2023-09-19T15:16:35;22.90;99.90
12408;DHT22;6268;48.188;17.134;2023-09-19T15:19:04;22.90;99.90
12408;DHT22;6268;48.188;17.134;2023-09-19T15:21:34;22.90;99.90
12408;DHT22;6268;48.188;17.134;2023-09-19T15:24:03;22.90;99.90
12408;DHT22;6268;48.188;17.134;2023-09-19T15:26:32;22.70;99.90
12408;DHT22;6268;48.188;17.134;2023-09-19T15:29:02;22.70;99.90
12408;DHT22;6268;48.188;17.134;2023-09-19T15:31:31;22.60;99.90
12408;DHT22;6268;48.188;17.134;2023-09-19T15:33:59;22.60;99.90
12408;DHT22;6268;48.188;17.134;2023-09-19T15:36:28;22.70;99.90
12408;DHT22;6268;48.188;17.134;2023-09-19T15:38:59;22.60;99.90
12408;DHT22;6268;48.188;17.134;2023-09-19T15:41:29;22.60;99.90
12408;DHT22;6268;48.188;17.134;2023-09-19T15:43:58;22.70;99.90
12408;DHT22;6268;48.188;17.134;2023-09-19T15:46:31;22.70;99.90
12408;DHT22;6268;48.188;17.134;2023-09-19T15:49:03;22.80;99.90
12408;DHT22;6268;48.188;17.134;2023-09-19T15:51:31;22.70;99.90
12408;DHT22;6268;48.188;17.134;2023-09-19T15:54:00;22.80;99.90
12408;DHT22;6268;48.188;17.134;2023-09-19T15:56:29;22.80;99.90
12408;DHT22;6268;48.188;17.134;2023-09-19T15:58:57;22.80;99.90
12408;DHT22;6268;48.188;17.134;2023-09-19T16:01:26;22.80;99.90
12408;DHT22;6268;48.188;17.134;2023-09-19T16:03:56;22.80;99.90